Time;durP1;ratioP1;P1;durP2;ratioP2;P2;SDS_P1;SDS_P2;PMS_P1;PMS_P2;Temp;Humidity;BMP_temperature;BMP_pressure;BME280_temperature;BME280_humidity;BME280_pressure;Samples;Min_cycle;Max_cycle;Signal;HPM_P1;HPM_P2
2022/02/09 00:00:27;;;;;;;;;;;;;;;;;;;;;
2022/02/09 00:03:31;;;;;;;;;;;;;;;;;;;;;
2022/02/09 00:06:16;;;;;;;11.60;10.40;;;;;;;6.64;79.43;101022.56;106148;1297;22020;-78
2022/02/09 00:09:39;;;;;;;;;;;;;;;;;;;;;
2022/02/09 00:18:37;;;;;;;11.40;9.30;;;;;;;6.69;79.45;101038.10;109044;1267;22031;-79
2022/02/09 00:26:51;;;;;;;;;;;;;;;;;;;;;
2022/02/09 00:37:28;;;;;;;9.10;8.20;;;;;;;6.73;80.69;101070.80;106456;1299;22030;-78
2022/02/09 01:57:51;;;;;;;11.40;10.30;;;;;;;7.40;80.74;101099.04;107925;1283;23695;-79
2022/02/09 02:00:58;;;;;;;;;;;;;;;;;;;;;
2022/02/09 02:03:59;;;;;;;9.30;8.50;;;;;;;7.34;80.54;101088.85;108445;1273;24415;-78
2022/02/09 02:06:58;;;;;;;;;;;;;;;;;;;;;
2022/02/09 02:10:44;;;;;;;;;;;;;;;;;;;;;
2022/02/09 02:14:14;;;;;;;;;;;;;;;;;;;;;
2022/02/09 02:17:46;;;;;;;9.40;8.50;;;;;;;7.22;80.56;101078.31;108265;1276;22586;-77
2022/02/09 03:09:00;;;;;;;6.10;5.60;;;;;;;7.87;77.43;101098.04;107457;1286;550475;-78
2022/02/09 03:13:16;;;;;;;7.40;6.70;;;;;;;7.72;77.53;101096.73;108632;1273;22155;-78
2022/02/09 03:17:13;;;;;;;7.20;6.50;;;;;;;7.61;77.79;101096.59;108356;1279;21985;-79
2022/02/09 03:22:21;;;;;;;7.10;6.50;;;;;;;7.49;78.01;101100.25;102978;1292;5405304;-79
2022/02/09 03:24:43;;;;;;;6.90;6.20;;;;;;;7.42;78.23;101106.77;106758;1291;22000;-77
2022/02/09 03:45:05;;;;;;;;;;;;;;;;;;;;;
2022/02/09 03:53:00;;;;;;;;;;;;;;;;;;;;;
2022/02/09 04:09:54;;;;;;;5.00;4.50;;;;;;;8.82;75.29;101126.30;107143;1288;548156;-79
2022/02/09 04:36:43;;;;;;;;;;;;;;;;;;;;;
2022/02/09 04:58:01;;;;;;;5.10;3.70;;;;;;;9.02;72.58;101136.81;106707;1295;548732;-76
2022/02/09 05:24:10;;;;;;;2.90;1.60;;;;;;;7.69;74.01;101138.17;107280;1289;22050;-78
2022/02/09 05:31:28;;;;;;;3.90;1.90;;;;;;;7.60;74.19;101144.20;106984;1296;22031;-78
2022/02/09 05:34:52;;;;;;;;;;;;;;;;;;;;;
2022/02/09 05:37:53;;;;;;;4.60;2.40;;;;;;;7.57;74.24;101145.11;107553;1289;23805;-78
2022/02/09 05:41:19;;;;;;;;;;;;;;;;;;;;;
2022/02/09 05:44:35;;;;;;;5.80;4.20;;;;;;;7.54;74.19;101150.96;107289;1292;22021;-78
2022/02/09 05:48:29;;;;;;;;;;;;;;;;;;;;;
2022/02/09 06:10:38;;;;;;;10.70;4.90;;;;;;;8.91;69.83;101167.13;108940;1267;548212;-78
2022/02/09 06:15:43;;;;;;;;;;;;;;;;;;;;;
2022/02/09 06:23:38;;;;;;;;;;;;;;;;;;;;;
2022/02/09 06:27:50;;;;;;;12.80;7.90;;;;;;;7.80;71.36;101173.54;109284;1263;21986;-79
2022/02/09 06:30:41;;;;;;;;;;;;;;;;;;;;;
2022/02/09 06:33:58;;;;;;;;;;;;;;;;;;;;;
2022/02/09 06:37:10;;;;;;;;;;;;;;;;;;;;;
2022/02/09 06:40:20;;;;;;;23.50;14.60;;;;;;;7.50;73.02;101184.05;108820;1267;22343;-78
2022/02/09 06:43:15;;;;;;;25.60;16.30;;;;;;;7.46;73.31;101185.84;109173;1266;22073;-77
2022/02/09 06:46:22;;;;;;;22.00;13.10;;;;;;;7.45;73.78;101188.68;109260;1266;22170;-82
2022/02/09 06:49:55;;;;;;;;;;;;;;;;;;;;;
2022/02/09 07:00:45;;;;;;;;;;;;;;;;;;;;;
2022/02/09 07:04:27;;;;;;;;;;;;;;;;;;;;;
2022/02/09 07:07:47;;;;;;;;;;;;;;;;;;;;;
2022/02/09 07:11:13;;;;;;;;;;;;;;;;;;;;;
2022/02/09 07:18:03;;;;;;;;;;;;;;;;;;;;;
2022/02/09 07:21:25;;;;;;;;;;;;;;;;;;;;;
2022/02/09 07:24:17;;;;;;;17.90;9.80;;;;;;;7.25;75.95;101183.16;108439;1273;22005;-80
2022/02/09 07:27:39;;;;;;;13.90;10.20;;;;;;;7.25;75.99;101185.79;108522;1274;22775;-79
2022/02/09 07:30:55;;;;;;;18.30;12.30;;;;;;;7.27;76.42;101184.61;108509;1273;21998;-79
2022/02/09 07:34:30;;;;;;;;;;;;;;;;;;;;;
2022/02/09 07:41:29;;;;;;;;;;;;;;;;;;;;;
2022/02/09 07:45:55;;;;;;;;;;;;;;;;;;;;;
2022/02/09 07:53:11;;;;;;;;;;;;;;;;;;;;;
2022/02/09 08:00:59;;;;;;;26.20;23.50;;;;;;;7.32;78.22;101154.05;109355;1265;21986;-81
2022/02/09 08:04:26;;;;;;;;;;;;;;;;;;;;;
2022/02/09 08:08:07;;;;;;;27.70;25.00;;;;;;;7.43;78.57;101155.89;109048;1266;22051;-79
2022/02/09 08:10:58;;;;;;;33.70;27.70;;;;;;;7.49;78.77;101158.73;109134;1269;23118;-87
2022/02/09 08:22:29;;;;;;;34.50;29.40;;;;;;;7.69;79.27;101154.32;109854;1259;22023;-80
2022/02/09 08:31:34;;;;;;;48.40;32.90;;;;;;;7.90;79.30;101138.81;110406;1256;23240;-88
2022/02/09 08:34:14;;;;;;;40.60;29.70;;;;;;;7.94;79.46;101136.86;109824;1260;21996;-82
2022/02/09 08:36:52;;;;;;;39.50;29.80;;;;;;;8.01;79.54;101145.39;110067;1250;23152;-82
2022/02/09 08:39:26;;;;;;;35.50;27.50;;;;;;;8.09;79.43;101146.54;110664;1251;21971;-81
2022/02/09 08:42:00;;;;;;;29.10;24.30;;;;;;;8.13;79.15;101143.02;110514;1254;22047;-81
2022/02/09 08:44:51;;;;;;;27.80;24.10;;;;;;;8.11;79.09;101144.03;110432;1257;23000;-81
2022/02/09 08:48:04;;;;;;;27.20;21.10;;;;;;;8.11;79.04;101148.10;110675;1250;22075;-82
2022/02/09 08:50:40;;;;;;;24.50;21.70;;;;;;;8.13;79.09;101148.74;110895;1251;23790;-82
2022/02/09 08:53:34;;;;;;;;;;;;;;;;;;;;;
2022/02/09 08:56:13;;;;;;;19.90;17.80;;;;;;;8.18;79.10;101149.35;111171;1247;23029;-81
2022/02/09 08:58:53;;;;;;;20.30;17.30;;;;;;;8.22;79.13;101145.52;111037;1247;24290;-82
2022/02/09 09:01:53;;;;;;;15.20;13.70;;;;;;;8.23;78.87;101144.70;111507;1242;22034;-81
2022/02/09 09:04:44;;;;;;;18.50;15.70;;;;;;;8.22;78.75;101145.16;111665;1242;22414;-81
2022/02/09 09:07:51;;;;;;;;;;;;;;;;;;;;;
2022/02/09 09:10:47;;;;;;;15.90;14.30;;;;;;;8.25;78.80;101144.94;111502;1242;21960;-80
2022/02/09 10:36:11;;;;;;;16.10;12.90;;;;;;;9.43;76.30;101141.25;111039;1254;23520;-80
2022/02/09 10:39:20;;;;;;;18.90;15.80;;;;;;;9.49;76.07;101142.66;111117;1253;23055;-81
2022/02/09 10:42:12;;;;;;;13.40;12.00;;;;;;;9.54;75.63;101149.95;110617;1257;21977;-81
2022/02/09 10:45:52;;;;;;;15.90;13.80;;;;;;;9.50;75.17;101146.10;110642;1257;23586;-80
2022/02/09 10:48:38;;;;;;;17.90;16.00;;;;;;;9.48;75.06;101150.48;110037;1260;22983;-80
2022/02/09 10:51:32;;;;;;;13.10;11.50;;;;;;;9.48;74.88;101149.27;110356;1253;23634;-81
2022/02/09 10:54:27;;;;;;;12.40;10.40;;;;;;;9.44;74.60;101150.30;111196;1251;21977;-81
2022/02/09 10:57:02;;;;;;;12.90;10.20;;;;;;;9.41;74.59;101145.48;110734;1252;21994;-81
2022/02/09 10:59:48;;;;;;;12.20;10.90;;;;;;;9.39;74.53;101142.18;111005;1248;22862;-80
2022/02/09 11:02:45;;;;;;;14.30;12.60;;;;;;;9.36;74.45;101136.05;111331;1244;22849;-81
2022/02/09 11:05:36;;;;;;;13.60;10.90;;;;;;;9.37;74.48;101129.69;111618;1244;22335;-82
2022/02/09 11:08:13;;;;;;;13.20;11.00;;;;;;;9.39;74.54;101133.55;111460;1244;21963;-81
2022/02/09 11:11:16;;;;;;;12.20;10.80;;;;;;;9.36;74.36;101129.72;111524;1244;21978;-80
2022/02/09 11:13:58;;;;;;;19.90;14.40;;;;;;;9.35;74.40;101126.52;112183;1236;22256;-81
2022/02/09 11:17:05;;;;;;;12.40;11.20;;;;;;;9.34;74.37;101128.69;111107;1245;21974;-81
2022/02/09 11:19:44;;;;;;;12.80;11.30;;;;;;;9.32;74.25;101130.98;110902;1251;22881;-80
2022/02/09 11:22:41;;;;;;;12.10;10.90;;;;;;;9.31;74.25;101130.39;110605;1257;21989;-80
2022/02/09 11:25:53;;;;;;;;;;;;;;;;;;;;;
2022/02/09 11:29:16;;;;;;;11.50;10.20;;;;;;;9.31;74.13;101131.14;110722;1257;23819;-81
2022/02/09 11:33:37;;;;;;;17.10;14.20;;;;;;;9.25;74.27;101131.11;110669;1254;23574;-84
2022/02/09 11:39:49;;;;;;;14.40;11.50;;;;;;;9.30;74.16;101125.36;111479;1245;21966;-80
2022/02/09 11:49:47;;;;;;;;;;;;;;;;;;;;;
2022/02/09 12:12:00;;;;;;;17.90;15.10;;;;;;;9.29;73.56;101124.05;112087;1242;22005;-83
2022/02/09 12:15:42;;;;;;;11.40;10.20;;;;;;;9.31;73.56;101124.73;112185;1241;21971;-81
2022/02/09 12:18:43;;;;;;;19.70;14.20;;;;;;;9.35;73.50;101122.50;111845;1241;22034;-83
2022/02/09 12:21:27;;;;;;;21.00;15.00;;;;;;;9.38;73.52;101122.85;112019;1241;22728;-81
2022/02/09 12:24:40;;;;;;;;;;;;;;;;;;;;;
2022/02/09 12:28:13;;;;;;;;;;;;;;;;;;;;;
2022/02/09 12:31:26;;;;;;;;;;;;;;;;;;;;;
2022/02/09 12:34:28;;;;;;;21.80;16.10;;;;;;;9.41;73.26;101110.67;111790;1239;22430;-81
2022/02/09 12:37:27;;;;;;;19.30;16.00;;;;;;;9.40;73.25;101113.77;111954;1241;22010;-81
2022/02/09 12:40:40;;;;;;;21.20;16.30;;;;;;;9.34;73.05;101113.95;111724;1244;22975;-81
2022/02/09 12:44:21;;;;;;;14.10;12.70;;;;;;;9.27;73.06;101105.85;112090;1239;22415;-82
2022/02/09 12:47:17;;;;;;;;;;;;;;;;;;;;;
2022/02/09 12:49:52;;;;;;;15.90;14.30;;;;;;;9.26;73.23;101099.76;111655;1244;21970;-81
2022/02/09 12:52:43;;;;;;;17.10;14.40;;;;;;;9.26;73.10;101096.56;111895;1242;21965;-83
2022/02/09 12:55:46;;;;;;;15.40;13.80;;;;;;;9.25;72.90;101098.22;111951;1241;21984;-80
2022/02/09 12:59:14;;;;;;;;;;;;;;;;;;;;;
2022/02/09 13:03:05;;;;;;;22.60;20.30;;;;;;;9.24;72.80;101112.25;111582;1245;21966;-81
2022/02/09 13:06:40;;;;;;;;;;;;;;;;;;;;;
2022/02/09 13:09:56;;;;;;;;;;;;;;;;;;;;;
2022/02/09 13:12:33;;;;;;;20.90;18.70;;;;;;;9.20;72.66;101114.04;111369;1245;21984;-80
2022/02/09 13:15:32;;;;;;;18.90;15.90;;;;;;;9.20;72.60;101112.41;111705;1242;21964;-80
2022/02/09 13:18:59;;;;;;;19.90;17.90;;;;;;;9.20;72.50;101108.52;111928;1241;23612;-80
2022/02/09 13:25:32;;;;;;;25.70;23.00;;;;;;;9.16;72.40;101100.42;111736;1240;23664;-81
2022/02/09 14:05:06;;;;;;;;;;;;;;;;;;;;;
2022/02/09 14:53:43;;;;;;;16.70;13.60;;;;;;;9.21;68.87;101027.77;111282;1248;23029;-80
2022/02/09 14:56:50;;;;;;;;;;;;;;;9.24;68.71;101034.79;111425;1242;21936;-81
2022/02/09 15:00:09;;;;;;;15.30;13.00;;;;;;;9.17;68.76;101040.30;111971;1242;21961;-80
2022/02/09 15:10:25;;;;;;;17.00;12.10;;;;;;;9.09;68.23;101030.62;110228;1257;23805;-80
2022/02/09 15:13:57;;;;;;;22.30;13.80;;;;;;;9.07;68.10;101029.46;110293;1254;23715;-80
2022/02/09 15:17:48;;;;;;;36.20;24.70;;;;;;;9.05;68.05;101027.88;110344;1259;21973;-80
2022/02/09 15:21:48;;;;;;;31.60;24.80;;;;;;;9.06;67.96;101035.55;110405;1253;23603;-81
2022/02/09 15:24:27;;;;;;;;;;;;;;;;;;;;;
2022/02/09 15:27:14;;;;;;;23.00;15.30;;;;;;;9.04;67.65;101039.60;110721;1251;23579;-82
2022/02/09 15:30:02;;;;;;;13.40;12.00;;;;;;;9.02;67.57;101046.45;110944;1250;23571;-81
2022/02/09 15:33:02;;;;;;;;;;;;;;;;;;;;;
2022/02/09 15:35:43;;;;;;;13.00;10.40;;;;;;;8.97;67.42;101040.61;111159;1248;21963;-81
2022/02/09 15:39:02;;;;;;;16.00;11.80;;;;;;;8.93;67.34;101042.11;111005;1247;21965;-80
2022/02/09 15:59:18;;;;;;;28.20;19.00;;;;;;;8.88;67.21;101044.70;111864;1242;21984;-79
2022/02/09 16:16:27;;;;;;;16.00;11.40;;;;;;;8.75;67.04;101042.77;110912;1251;22341;-80
2022/02/09 16:21:47;;;;;;;17.30;13.50;;;;;;;8.76;66.79;101035.33;111397;1239;21978;-79
2022/02/09 16:46:48;;;;;;;;;;;;;;;;;;;;;
2022/02/09 16:50:08;;;;;;;24.90;14.30;;;;;;;8.63;66.40;101044.89;111550;1243;21919;-80
2022/02/09 16:53:18;;;;;;;;;;;;;;;;;;;;;
2022/02/09 16:56:28;;;;;;;19.60;14.30;;;;;;;8.61;66.34;101045.94;111858;1241;21993;-81
2022/02/09 17:22:29;;;;;;;18.30;12.20;;;;;;;8.43;66.75;101054.02;111711;1242;22091;-81
2022/02/09 17:25:28;;;;;;;;;;;;;;;;;;;;;
2022/02/09 17:28:14;;;;;;;22.10;16.60;;;;;;;8.45;66.91;101058.42;112128;1236;22388;-79
2022/02/09 17:31:29;;;;;;;17.20;13.40;;;;;;;8.45;66.78;101057.14;112451;1236;22722;-80
2022/02/09 17:37:47;;;;;;;19.40;16.70;;;;;;;8.39;66.87;101059.07;113266;1230;22369;-79
2022/02/09 17:59:00;;;;;;;16.70;13.10;;;;;;;8.17;67.68;101040.56;112326;1236;22722;-80
2022/02/09 18:01:59;;;;;;;17.90;15.20;;;;;;;8.16;67.78;101046.06;111284;1246;21971;-80
2022/02/09 18:05:00;;;;;;;20.20;15.40;;;;;;;8.15;67.88;101043.48;111686;1242;22830;-80
2022/02/09 18:08:18;;;;;;;;;;;;;;;;;;;;;
2022/02/09 18:15:03;;;;;;;21.20;16.40;;;;;;;8.08;68.21;101038.56;111569;1241;320737;-80
2022/02/09 18:31:35;;;;;;;17.10;12.50;;;;;;;8.09;68.24;101023.34;111316;1243;23047;-80
2022/02/09 18:37:50;;;;;;;27.40;20.40;;;;;;;8.11;68.45;101039.87;111621;1245;23561;-80
2022/02/09 18:44:14;;;;;;;25.60;20.50;;;;;;;8.17;68.25;101052.98;111715;1245;22438;-80
2022/02/09 18:56:53;;;;;;;27.10;19.80;;;;;;;8.21;68.17;101055.77;110985;1251;21980;-80
2022/02/09 18:56:58;;;;;;;21.90;17.80;;;;;;;8.22;68.21;101059.73;110886;1251;21982;-80
2022/02/09 19:00:03;;;;;;;24.40;17.70;;;;;;;8.22;68.09;101054.30;110381;1257;21983;-79
2022/02/09 19:03:26;;;;;;;17.90;12.70;;;;;;;8.22;68.01;101052.29;109824;1260;22050;-79
2022/02/09 19:06:42;;;;;;;15.70;12.90;;;;;;;8.23;68.03;101053.17;110364;1256;22013;-79
2022/02/09 19:16:46;;;;;;;31.10;22.40;;;;;;;8.17;67.91;101057.56;109961;1259;22976;-79
2022/02/09 19:29:36;;;;;;;17.20;14.10;;;;;;;8.16;67.73;101063.99;112080;1239;23692;-80
2022/02/09 19:31:48;;;;;;;15.40;11.50;;;;;;;8.17;67.71;101066.84;112144;1238;23573;-81
2022/02/09 19:44:32;;;;;;;13.70;9.70;;;;;;;8.15;67.57;101063.34;111854;1242;21959;-79
2022/02/09 19:55:34;;;;;;;19.40;14.60;;;;;;;8.14;67.58;101063.23;111028;1251;21977;-78
2022/02/09 19:58:22;;;;;;;17.30;11.70;;;;;;;8.16;67.59;101061.16;110993;1247;21967;-78
2022/02/09 20:01:18;;;;;;;14.60;10.20;;;;;;;8.19;67.57;101063.50;111341;1248;22821;-80
2022/02/09 20:03:59;;;;;;;19.10;13.20;;;;;;;8.21;67.57;101065.77;111116;1251;23065;-79
2022/02/09 20:07:11;;;;;;;18.60;11.90;;;;;;;8.22;67.51;101068.11;110923;1250;21975;-80
2022/02/09 20:10:24;;;;;;;;;;;;;;;;;;;;;
2022/02/09 20:13:13;;;;;;;21.50;14.60;;;;;;;8.20;67.41;101073.77;110869;1251;21993;-80
2022/02/09 20:16:23;;;;;;;;;;;;;;;;;;;;;
2022/02/09 20:19:29;;;;;;;19.00;13.00;;;;;;;8.15;67.27;101067.75;110575;1254;21986;-81
2022/02/09 20:22:35;;;;;;;24.10;14.80;;;;;;;8.14;67.31;101070.08;110906;1251;21970;-80
2022/02/09 20:25:36;;;;;;;24.60;15.80;;;;;;;8.15;67.37;101074.38;110771;1253;23100;-80
2022/02/09 20:28:34;;;;;;;24.50;15.50;;;;;;;8.18;67.40;101079.06;110575;1254;23124;-80
2022/02/09 20:32:07;;;;;;;;;;;;;;;;;;;;;
2022/02/09 20:34:54;;;;;;;29.90;18.50;;;;;;;8.20;67.19;101079.52;111573;1241;22955;-80
2022/02/09 20:37:29;;;;;;;33.10;23.00;;;;;;;8.21;67.25;101080.54;111858;1239;23015;-81
2022/02/09 20:40:46;;;;;;;41.60;26.20;;;;;;;8.23;67.28;101080.14;111457;1242;21964;-79
2022/02/09 20:43:21;;;;;;;35.90;23.00;;;;;;;8.25;67.29;101077.36;111082;1248;21980;-80
2022/02/09 20:46:02;;;;;;;34.40;22.60;;;;;;;8.26;67.28;101074.85;111063;1247;23679;-80
2022/02/09 20:48:44;;;;;;;22.40;14.70;;;;;;;8.27;67.34;101070.19;111146;1248;23698;-79
2022/02/09 20:51:28;;;;;;;;;;;;;;;;;;;;;
2022/02/09 20:54:14;;;;;;;35.70;22.20;;;;;;;8.18;67.21;101069.92;110943;1251;24800;-80
2022/02/09 20:56:57;;;;;;;29.00;17.70;;;;;;;8.12;67.19;101066.19;111387;1247;21978;-80
2022/02/09 20:59:52;;;;;;;33.30;20.50;;;;;;;8.10;67.23;101071.82;111787;1241;22021;-79
2022/02/09 21:07:00;;;;;;;;;;;;;;;;;;;;;
2022/02/09 21:10:13;;;;;;;22.20;12.80;;;;;;;8.13;67.50;101072.59;111962;1241;21968;-81
2022/02/09 21:53:45;;;;;;;13.80;10.00;;;;;;;8.29;68.38;101085.30;110769;1250;22029;-79
2022/02/09 21:56:45;;;;;;;15.40;11.60;;;;;;;8.30;68.45;101087.43;110994;1247;21975;-80
2022/02/09 22:31:03;;;;;;;;;;;;;;;;;;;;;
2022/02/09 22:48:37;;;;;;;14.60;12.20;;;;;;;7.78;71.50;101074.66;108235;1279;22303;-78
2022/02/09 22:55:35;;;;;;;16.00;10.90;;;;;;;7.76;71.93;101070.53;108439;1276;23083;-78
2022/02/09 22:59:28;;;;;;;;;;;;;;;;;;;;;
2022/02/09 23:02:33;;;;;;;;;;;;;;;;;;;;;
2022/02/09 23:16:16;;;;;;;15.30;12.60;;;;;;;7.60;73.36;101051.65;108612;1273;22054;-78
2022/02/09 23:56:04;;;;;;;11.50;9.80;;;;;;;7.58;74.90;101037.48;108927;1264;21992;-80
